sensor_id;sensor_type;location;lat;lon;timestamp;pressure;altitude;pressure_sealevel;temperature;humidity
55550;BME280;41397;49.972;18.944;2023-03-13T00:00:23;101423.09;;;10.02;55.98
55550;BME280;41397;49.972;18.944;2023-03-13T00:03:34;101419.27;;;10.05;56.17
55550;BME280;41397;49.972;18.944;2023-03-13T00:06:37;101415.33;;;10.09;56.08
55550;BME280;41397;49.972;18.944;2023-03-13T00:09:39;101429.77;;;10.11;56.48
55550;BME280;41397;49.972;18.944;2023-03-13T00:12:41;101426.04;;;10.12;56.35
55550;BME280;41397;49.972;18.944;2023-03-13T00:15:43;101424.40;;;10.09;56.30
55550;BME280;41397;49.972;18.944;2023-03-13T00:18:46;101419.60;;;10.13;55.92
55550;BME280;41397;49.972;18.944;2023-03-13T00:21:48;101424.07;;;10.14;56.02
55550;BME280;41397;49.972;18.944;2023-03-13T00:24:49;101422.13;;;10.16;56.05
55550;BME280;41397;49.972;18.944;2023-03-13T00:27:52;101420.26;;;10.16;55.84
55550;BME280;41397;49.972;18.944;2023-03-13T00:34:11;101401.99;;;10.17;56.13
55550;BME280;41397;49.972;18.944;2023-03-13T00:37:23;101401.04;;;10.18;55.75
55550;BME280;41397;49.972;18.944;2023-03-13T00:40:26;101391.62;;;10.22;56.42
55550;BME280;41397;49.972;18.944;2023-03-13T00:43:29;101386.47;;;10.17;56.52
55550;BME280;41397;49.972;18.944;2023-03-13T00:46:30;101381.44;;;10.11;57.18
55550;BME280;41397;49.972;18.944;2023-03-13T00:49:32;101385.82;;;10.14;57.23
55550;BME280;41397;49.972;18.944;2023-03-13T00:52:34;101382.21;;;10.13;57.01
55550;BME280;41397;49.972;18.944;2023-03-13T00:55:35;101372.28;;;10.12;57.49
55550;BME280;41397;49.972;18.944;2023-03-13T00:58:38;101372.93;;;10.16;57.65
55550;BME280;41397;49.972;18.944;2023-03-13T01:01:41;101383.55;;;10.20;57.52
55550;BME280;41397;49.972;18.944;2023-03-13T01:04:42;101381.55;;;10.22;57.67
55550;BME280;41397;49.972;18.944;2023-03-13T01:07:44;101368.79;;;10.23;57.59
55550;BME280;41397;49.972;18.944;2023-03-13T01:10:45;101376.85;;;10.25;57.91
55550;BME280;41397;49.972;18.944;2023-03-13T01:13:47;101378.59;;;10.26;57.87
55550;BME280;41397;49.972;18.944;2023-03-13T01:16:49;101377.55;;;10.28;58.11
55550;BME280;41397;49.972;18.944;2023-03-13T01:19:50;101377.72;;;10.25;57.97
55550;BME280;41397;49.972;18.944;2023-03-13T01:22:55;101367.79;;;10.24;58.05
55550;BME280;41397;49.972;18.944;2023-03-13T01:25:57;101370.24;;;10.29;57.70
55550;BME280;41397;49.972;18.944;2023-03-13T01:28:58;101365.41;;;10.32;57.92
55550;BME280;41397;49.972;18.944;2023-03-13T01:31:59;101374.48;;;10.33;58.12
55550;BME280;41397;49.972;18.944;2023-03-13T01:35:01;101379.30;;;10.29;58.23
55550;BME280;41397;49.972;18.944;2023-03-13T01:38:02;101399.31;;;10.30;58.01
55550;BME280;41397;49.972;18.944;2023-03-13T01:41:06;101391.11;;;10.30;58.24
55550;BME280;41397;49.972;18.944;2023-03-13T01:47:22;101398.10;;;10.34;58.61
55550;BME280;41397;49.972;18.944;2023-03-13T01:50:23;101400.20;;;10.43;58.61
55550;BME280;41397;49.972;18.944;2023-03-13T01:53:25;101401.84;;;10.46;58.61
55550;BME280;41397;49.972;18.944;2023-03-13T01:56:46;101401.39;;;10.52;58.65
55550;BME280;41397;49.972;18.944;2023-03-13T01:59:55;101409.69;;;10.50;58.37
55550;BME280;41397;49.972;18.944;2023-03-13T02:02:55;101399.42;;;10.54;58.31
55550;BME280;41397;49.972;18.944;2023-03-13T02:05:59;101402.02;;;10.55;58.34
55550;BME280;41397;49.972;18.944;2023-03-13T02:09:08;101403.80;;;10.56;58.46
55550;BME280;41397;49.972;18.944;2023-03-13T02:12:16;101393.59;;;10.58;58.88
55550;BME280;41397;49.972;18.944;2023-03-13T02:15:21;101397.11;;;10.60;58.13
55550;BME280;41397;49.972;18.944;2023-03-13T02:18:23;101399.84;;;10.60;58.18
55550;BME280;41397;49.972;18.944;2023-03-13T02:24:54;101398.74;;;10.63;58.18
55550;BME280;41397;49.972;18.944;2023-03-13T02:27:59;101404.86;;;10.66;58.02
55550;BME280;41397;49.972;18.944;2023-03-13T02:31:01;101399.39;;;10.66;57.88
55550;BME280;41397;49.972;18.944;2023-03-13T02:34:03;101410.23;;;10.68;58.39
55550;BME280;41397;49.972;18.944;2023-03-13T02:37:07;101425.56;;;10.71;58.39
55550;BME280;41397;49.972;18.944;2023-03-13T02:40:17;101424.79;;;10.69;58.36
55550;BME280;41397;49.972;18.944;2023-03-13T02:43:34;101435.50;;;10.72;58.46
55550;BME280;41397;49.972;18.944;2023-03-13T02:49:43;101436.27;;;10.74;58.56
55550;BME280;41397;49.972;18.944;2023-03-13T02:52:50;101431.80;;;10.73;58.72
55550;BME280;41397;49.972;18.944;2023-03-13T02:55:54;101437.14;;;10.74;58.77
55550;BME280;41397;49.972;18.944;2023-03-13T02:58:55;101441.74;;;10.74;58.94
55550;BME280;41397;49.972;18.944;2023-03-13T03:01:57;101438.14;;;10.73;58.89
55550;BME280;41397;49.972;18.944;2023-03-13T03:04:58;101441.74;;;10.74;58.85
55550;BME280;41397;49.972;18.944;2023-03-13T03:08:00;101440.74;;;10.75;58.77
55550;BME280;41397;49.972;18.944;2023-03-13T03:11:01;101443.38;;;10.76;58.55
55550;BME280;41397;49.972;18.944;2023-03-13T03:14:05;101443.38;;;10.76;59.03
55550;BME280;41397;49.972;18.944;2023-03-13T03:17:06;101444.16;;;10.78;58.83
55550;BME280;41397;49.972;18.944;2023-03-13T03:20:09;101448.63;;;10.79;58.89
55550;BME280;41397;49.972;18.944;2023-03-13T03:23:14;101445.89;;;10.79;59.23
55550;BME280;41397;49.972;18.944;2023-03-13T03:26:16;101454.87;;;10.81;58.88
55550;BME280;41397;49.972;18.944;2023-03-13T03:29:17;101442.93;;;10.82;59.20
55550;BME280;41397;49.972;18.944;2023-03-13T03:32:19;101441.06;;;10.83;59.33
55550;BME280;41397;49.972;18.944;2023-03-13T03:35:21;101443.93;;;10.81;59.68
55550;BME280;41397;49.972;18.944;2023-03-13T03:38:22;101439.46;;;10.80;59.44
55550;BME280;41397;49.972;18.944;2023-03-13T03:41:24;101432.12;;;10.81;59.74
55550;BME280;41397;49.972;18.944;2023-03-13T03:44:25;101433.75;;;10.83;59.63
55550;BME280;41397;49.972;18.944;2023-03-13T03:47:27;101432.75;;;10.84;59.83
55550;BME280;41397;49.972;18.944;2023-03-13T03:50:28;101431.76;;;10.85;59.99
55550;BME280;41397;49.972;18.944;2023-03-13T03:53:30;101431.88;;;10.84;60.20
55550;BME280;41397;49.972;18.944;2023-03-13T03:56:32;101427.05;;;10.87;59.98
55550;BME280;41397;49.972;18.944;2023-03-13T03:59:34;101431.56;;;10.88;60.25
55550;BME280;41397;49.972;18.944;2023-03-13T04:02:35;101437.68;;;10.92;60.06
55550;BME280;41397;49.972;18.944;2023-03-13T04:05:37;101426.97;;;10.89;60.01
55550;BME280;41397;49.972;18.944;2023-03-13T04:08:39;101432.30;;;10.91;60.37
55550;BME280;41397;49.972;18.944;2023-03-13T04:11:40;101431.56;;;10.88;60.16
55550;BME280;41397;49.972;18.944;2023-03-13T04:14:42;101438.64;;;10.91;60.34
55550;BME280;41397;49.972;18.944;2023-03-13T04:17:43;101435.17;;;10.89;60.21
55550;BME280;41397;49.972;18.944;2023-03-13T04:20:45;101427.70;;;10.91;60.38
55550;BME280;41397;49.972;18.944;2023-03-13T04:23:46;101426.60;;;10.94;60.35
55550;BME280;41397;49.972;18.944;2023-03-13T04:26:47;101419.16;;;10.96;60.46
55550;BME280;41397;49.972;18.944;2023-03-13T04:29:50;101413.59;;;10.97;60.50
55550;BME280;41397;49.972;18.944;2023-03-13T04:32:51;101412.48;;;11.00;60.32
55550;BME280;41397;49.972;18.944;2023-03-13T04:35:53;101407.89;;;11.00;60.19
55550;BME280;41397;49.972;18.944;2023-03-13T04:38:54;101404.15;;;11.01;60.77
55550;BME280;41397;49.972;18.944;2023-03-13T04:41:58;101415.86;;;11.03;60.62
55550;BME280;41397;49.972;18.944;2023-03-13T04:44:59;101406.55;;;11.06;60.51
55550;BME280;41397;49.972;18.944;2023-03-13T04:48:00;101400.95;;;11.07;60.46
55550;BME280;41397;49.972;18.944;2023-03-13T04:51:02;101414.54;;;11.09;60.40
55550;BME280;41397;49.972;18.944;2023-03-13T04:54:06;101412.80;;;11.08;60.79
55550;BME280;41397;49.972;18.944;2023-03-13T04:57:07;101402.72;;;11.08;60.78
55550;BME280;41397;49.972;18.944;2023-03-13T05:00:09;101401.49;;;11.13;61.05
55550;BME280;41397;49.972;18.944;2023-03-13T05:03:11;101397.02;;;11.11;60.99
55550;BME280;41397;49.972;18.944;2023-03-13T05:06:14;101400.75;;;11.10;61.08
55550;BME280;41397;49.972;18.944;2023-03-13T05:09:15;101402.25;;;11.15;61.30
55550;BME280;41397;49.972;18.944;2023-03-13T05:12:16;101395.77;;;11.16;61.13
55550;BME280;41397;49.972;18.944;2023-03-13T05:15:18;101399.42;;;11.16;61.32
55550;BME280;41397;49.972;18.944;2023-03-13T05:18:22;101400.29;;;11.17;61.34
55550;BME280;41397;49.972;18.944;2023-03-13T05:21:23;101399.18;;;11.19;61.42
55550;BME280;41397;49.972;18.944;2023-03-13T05:24:25;101395.34;;;11.22;61.51
55550;BME280;41397;49.972;18.944;2023-03-13T05:27:26;101398.09;;;11.22;61.30
55550;BME280;41397;49.972;18.944;2023-03-13T05:30:30;101404.20;;;11.25;61.39
55550;BME280;41397;49.972;18.944;2023-03-13T05:33:31;101408.57;;;11.28;61.33
55550;BME280;41397;49.972;18.944;2023-03-13T05:36:32;101409.44;;;11.28;61.10
55550;BME280;41397;49.972;18.944;2023-03-13T05:39:34;101406.46;;;11.31;61.14
55550;BME280;41397;49.972;18.944;2023-03-13T05:42:38;101406.36;;;11.33;61.30
55550;BME280;41397;49.972;18.944;2023-03-13T05:45:39;101406.02;;;11.38;61.29
55550;BME280;41397;49.972;18.944;2023-03-13T05:48:41;101413.35;;;11.37;61.40
55550;BME280;41397;49.972;18.944;2023-03-13T05:51:42;101412.00;;;11.43;61.47
55550;BME280;41397;49.972;18.944;2023-03-13T05:54:45;101407.52;;;11.42;61.46
55550;BME280;41397;49.972;18.944;2023-03-13T05:57:47;101395.80;;;11.40;61.21
55550;BME280;41397;49.972;18.944;2023-03-13T06:00:49;101392.34;;;11.38;61.26
55550;BME280;41397;49.972;18.944;2023-03-13T06:03:51;101392.44;;;11.36;60.99
55550;BME280;41397;49.972;18.944;2023-03-13T06:06:53;101394.94;;;11.39;61.06
55550;BME280;41397;49.972;18.944;2023-03-13T06:09:55;101380.48;;;11.37;61.16
55550;BME280;41397;49.972;18.944;2023-03-13T06:12:56;101386.25;;;11.45;61.10
55550;BME280;41397;49.972;18.944;2023-03-13T06:15:58;101377.45;;;11.53;61.55
55550;BME280;41397;49.972;18.944;2023-03-13T06:19:02;101380.42;;;11.74;61.18
55550;BME280;41397;49.972;18.944;2023-03-13T06:22:04;101378.88;;;11.94;60.62
55550;BME280;41397;49.972;18.944;2023-03-13T06:25:06;101375.92;;;12.08;59.89
55550;BME280;41397;49.972;18.944;2023-03-13T06:28:08;101368.23;;;12.25;59.64
55550;BME280;41397;49.972;18.944;2023-03-13T06:31:10;101367.37;;;12.35;59.36
55550;BME280;41397;49.972;18.944;2023-03-13T06:34:12;101374.88;;;12.44;58.76
55550;BME280;41397;49.972;18.944;2023-03-13T06:40:33;101360.79;;;12.83;57.68
55550;BME280;41397;49.972;18.944;2023-03-13T06:43:35;101356.67;;;12.88;57.55
55550;BME280;41397;49.972;18.944;2023-03-13T06:46:40;101358.99;;;13.16;57.29
55550;BME280;41397;49.972;18.944;2023-03-13T06:49:44;101365.95;;;13.42;56.74
55550;BME280;41397;49.972;18.944;2023-03-13T06:52:46;101365.11;;;13.63;55.95
55550;BME280;41397;49.972;18.944;2023-03-13T06:55:48;101353.95;;;13.75;55.65
55550;BME280;41397;49.972;18.944;2023-03-13T06:58:50;101359.59;;;13.95;55.48
55550;BME280;41397;49.972;18.944;2023-03-13T07:01:51;101356.77;;;14.06;54.89
55550;BME280;41397;49.972;18.944;2023-03-13T07:04:54;101345.56;;;14.19;54.45
55550;BME280;41397;49.972;18.944;2023-03-13T07:18:34;101326.06;;;14.32;53.88
55550;BME280;41397;49.972;18.944;2023-03-13T07:25:09;101334.41;;;14.20;53.93
55550;BME280;41397;49.972;18.944;2023-03-13T07:31:41;101340.72;;;14.32;53.75
55550;BME280;41397;49.972;18.944;2023-03-13T07:34:43;101327.74;;;14.44;54.07
55550;BME280;41397;49.972;18.944;2023-03-13T08:12:04;101288.02;;;15.47;52.23
55550;BME280;41397;49.972;18.944;2023-03-13T08:15:07;101291.04;;;15.53;52.04
55550;BME280;41397;49.972;18.944;2023-03-13T08:18:08;101294.66;;;15.64;51.66
55550;BME280;41397;49.972;18.944;2023-03-13T08:21:13;101286.88;;;15.69;51.03
55550;BME280;41397;49.972;18.944;2023-03-13T08:24:15;101296.71;;;15.81;50.59
55550;BME280;41397;49.972;18.944;2023-03-13T08:27:17;101290.16;;;15.92;50.58
55550;BME280;41397;49.972;18.944;2023-03-13T08:30:18;101283.47;;;16.04;50.86
55550;BME280;41397;49.972;18.944;2023-03-13T08:33:20;101287.91;;;16.15;50.45
55550;BME280;41397;49.972;18.944;2023-03-13T08:36:28;101283.97;;;16.27;50.41
55550;BME280;41397;49.972;18.944;2023-03-13T08:39:30;101287.80;;;16.54;55.83
55550;BME280;41397;49.972;18.944;2023-03-13T08:42:42;101288.13;;;16.78;53.91
55550;BME280;41397;49.972;18.944;2023-03-13T08:45:45;101285.71;;;16.93;49.20
55550;BME280;41397;49.972;18.944;2023-03-13T08:48:53;101286.02;;;16.90;48.32
55550;BME280;41397;49.972;18.944;2023-03-13T09:05:32;101276.24;;;16.96;48.62
55550;BME280;41397;49.972;18.944;2023-03-13T09:52:27;101205.64;;;17.55;48.41
55550;BME280;41397;49.972;18.944;2023-03-13T09:55:44;101208.34;;;17.47;48.04
55550;BME280;41397;49.972;18.944;2023-03-13T09:59:01;101204.78;;;17.37;48.51
55550;BME280;41397;49.972;18.944;2023-03-13T10:02:27;101209.53;;;17.26;48.22
55550;BME280;41397;49.972;18.944;2023-03-13T10:05:34;101204.26;;;17.15;48.32
55550;BME280;41397;49.972;18.944;2023-03-13T10:09:01;101211.20;;;17.19;48.47
55550;BME280;41397;49.972;18.944;2023-03-13T10:33:33;101174.04;;;16.78;47.71
55550;BME280;41397;49.972;18.944;2023-03-13T10:43:54;101166.95;;;16.65;47.64
55550;BME280;41397;49.972;18.944;2023-03-13T10:47:01;101159.29;;;16.59;47.66
55550;BME280;41397;49.972;18.944;2023-03-13T10:50:17;101156.04;;;16.64;47.71
55550;BME280;41397;49.972;18.944;2023-03-13T10:53:47;101143.59;;;16.60;47.02
55550;BME280;41397;49.972;18.944;2023-03-13T11:38:11;101057.92;;;16.70;44.39
55550;BME280;41397;49.972;18.944;2023-03-13T12:22:00;101007.45;;;17.03;42.50
55550;BME280;41397;49.972;18.944;2023-03-13T13:02:34;100978.11;;;16.05;51.08
55550;BME280;41397;49.972;18.944;2023-03-13T13:09:37;100982.42;;;15.89;53.37
55550;BME280;41397;49.972;18.944;2023-03-13T13:16:30;100976.41;;;15.76;53.69
55550;BME280;41397;49.972;18.944;2023-03-13T13:37:24;100993.81;;;15.12;55.31
55550;BME280;41397;49.972;18.944;2023-03-13T13:40:30;100991.88;;;15.22;54.82
55550;BME280;41397;49.972;18.944;2023-03-13T13:43:38;100970.19;;;15.09;54.79
55550;BME280;41397;49.972;18.944;2023-03-13T13:46:51;100960.90;;;15.10;54.33
55550;BME280;41397;49.972;18.944;2023-03-13T13:53:33;100957.35;;;14.90;54.20
55550;BME280;41397;49.972;18.944;2023-03-13T13:56:51;100955.41;;;15.00;53.85
55550;BME280;41397;49.972;18.944;2023-03-13T14:00:25;100945.47;;;14.90;53.75
55550;BME280;41397;49.972;18.944;2023-03-13T14:27:22;100933.24;;;14.55;54.08
55550;BME280;41397;49.972;18.944;2023-03-13T15:51:16;100881.23;;;14.42;56.34
55550;BME280;41397;49.972;18.944;2023-03-13T16:09:03;100869.97;;;14.35;56.06
55550;BME280;41397;49.972;18.944;2023-03-13T16:12:19;100879.38;;;14.33;56.00
55550;BME280;41397;49.972;18.944;2023-03-13T16:19:07;100881.66;;;14.37;55.99
55550;BME280;41397;49.972;18.944;2023-03-13T16:22:37;100878.36;;;14.34;55.77
55550;BME280;41397;49.972;18.944;2023-03-13T16:26:10;100868.21;;;14.34;56.04
55550;BME280;41397;49.972;18.944;2023-03-13T16:33:03;100860.42;;;14.30;55.79
55550;BME280;41397;49.972;18.944;2023-03-13T16:36:14;100861.85;;;14.34;55.61
55550;BME280;41397;49.972;18.944;2023-03-13T16:42:19;100846.93;;;14.36;55.40
55550;BME280;41397;49.972;18.944;2023-03-13T16:45:36;100851.14;;;14.31;55.34
55550;BME280;41397;49.972;18.944;2023-03-13T16:49:01;100845.20;;;14.35;55.18
55550;BME280;41397;49.972;18.944;2023-03-13T16:52:15;100847.96;;;14.35;54.98
55550;BME280;41397;49.972;18.944;2023-03-13T17:15:58;100789.71;;;14.40;53.59
55550;BME280;41397;49.972;18.944;2023-03-13T17:19:19;100784.93;;;14.42;53.48
55550;BME280;41397;49.972;18.944;2023-03-13T17:22:40;100787.02;;;14.30;53.29
55550;BME280;41397;49.972;18.944;2023-03-13T17:29:27;100775.16;;;14.30;52.74
55550;BME280;41397;49.972;18.944;2023-03-13T17:32:55;100777.31;;;14.26;52.63
55550;BME280;41397;49.972;18.944;2023-03-13T17:36:34;100770.77;;;14.37;52.39
55550;BME280;41397;49.972;18.944;2023-03-13T17:40:21;100769.77;;;14.38;52.22
55550;BME280;41397;49.972;18.944;2023-03-13T17:43:40;100763.34;;;14.47;52.18
55550;BME280;41397;49.972;18.944;2023-03-13T17:47:20;100754.77;;;14.50;51.65
55550;BME280;41397;49.972;18.944;2023-03-13T17:50:49;100761.59;;;14.56;51.73
55550;BME280;41397;49.972;18.944;2023-03-13T17:54:19;100733.63;;;14.51;51.45
55550;BME280;41397;49.972;18.944;2023-03-13T18:01:05;100706.01;;;14.42;51.11
55550;BME280;41397;49.972;18.944;2023-03-13T18:04:17;100706.28;;;14.49;51.41
55550;BME280;41397;49.972;18.944;2023-03-13T18:07:38;100713.49;;;14.60;50.99
55550;BME280;41397;49.972;18.944;2023-03-13T18:10:47;100704.93;;;14.63;50.90
55550;BME280;41397;49.972;18.944;2023-03-13T18:14:07;100681.47;;;14.59;50.57
55550;BME280;41397;49.972;18.944;2023-03-13T18:27:52;100673.48;;;14.65;49.27
55550;BME280;41397;49.972;18.944;2023-03-13T18:31:07;100663.33;;;14.66;48.99
55550;BME280;41397;49.972;18.944;2023-03-13T19:09:54;100661.04;;;14.61;46.88
55550;BME280;41397;49.972;18.944;2023-03-13T19:13:13;100646.01;;;14.56;47.32
55550;BME280;41397;49.972;18.944;2023-03-13T19:27:25;100618.45;;;14.38;46.90
55550;BME280;41397;49.972;18.944;2023-03-13T20:26:11;100622.83;;;14.31;46.67
55550;BME280;41397;49.972;18.944;2023-03-13T20:29:24;100591.39;;;14.33;46.55
55550;BME280;41397;49.972;18.944;2023-03-13T20:50:23;100567.95;;;14.57;45.83
55550;BME280;41397;49.972;18.944;2023-03-13T20:53:54;100571.25;;;14.60;46.03
55550;BME280;41397;49.972;18.944;2023-03-13T20:57:21;100565.02;;;14.58;46.07
55550;BME280;41397;49.972;18.944;2023-03-13T21:00:34;100552.30;;;14.57;46.28
55550;BME280;41397;49.972;18.944;2023-03-13T21:03:48;100551.59;;;14.55;46.01
55550;BME280;41397;49.972;18.944;2023-03-13T21:06:56;100531.90;;;14.50;46.00
55550;BME280;41397;49.972;18.944;2023-03-13T21:10:19;100526.90;;;14.63;46.14
55550;BME280;41397;49.972;18.944;2023-03-13T21:13:29;100513.35;;;14.70;46.18
55550;BME280;41397;49.972;18.944;2023-03-13T21:16:30;100503.91;;;14.73;46.17
55550;BME280;41397;49.972;18.944;2023-03-13T21:19:37;100495.33;;;14.76;46.14
55550;BME280;41397;49.972;18.944;2023-03-13T21:22:40;100490.72;;;14.76;46.20
55550;BME280;41397;49.972;18.944;2023-03-13T21:25:42;100483.32;;;14.77;46.31
55550;BME280;41397;49.972;18.944;2023-03-13T21:28:43;100468.70;;;14.76;46.42
55550;BME280;41397;49.972;18.944;2023-03-13T21:31:45;100474.53;;;14.73;46.60
55550;BME280;41397;49.972;18.944;2023-03-13T21:34:46;100465.17;;;14.66;46.54
55550;BME280;41397;49.972;18.944;2023-03-13T21:37:48;100469.02;;;14.73;46.66
55550;BME280;41397;49.972;18.944;2023-03-13T21:40:49;100463.60;;;14.63;46.60
55550;BME280;41397;49.972;18.944;2023-03-13T21:43:53;100462.09;;;14.69;46.84
55550;BME280;41397;49.972;18.944;2023-03-13T21:46:55;100481.57;;;14.76;46.80
55550;BME280;41397;49.972;18.944;2023-03-13T21:49:57;100474.02;;;14.78;46.56
55550;BME280;41397;49.972;18.944;2023-03-13T21:53:00;100477.70;;;14.86;46.75
55550;BME280;41397;49.972;18.944;2023-03-13T21:56:02;100484.09;;;14.87;46.65
55550;BME280;41397;49.972;18.944;2023-03-13T21:59:04;100484.77;;;14.89;46.48
55550;BME280;41397;49.972;18.944;2023-03-13T22:02:11;100493.73;;;14.91;46.32
55550;BME280;41397;49.972;18.944;2023-03-13T22:05:13;100488.17;;;14.83;46.68
55550;BME280;41397;49.972;18.944;2023-03-13T22:08:14;100500.75;;;14.85;46.72
55550;BME280;41397;49.972;18.944;2023-03-13T22:11:16;100493.73;;;14.91;46.64
55550;BME280;41397;49.972;18.944;2023-03-13T22:14:18;100498.92;;;14.94;46.45
55550;BME280;41397;49.972;18.944;2023-03-13T22:17:21;100489.48;;;14.97;46.62
55550;BME280;41397;49.972;18.944;2023-03-13T22:20:23;100475.38;;;15.00;46.44
55550;BME280;41397;49.972;18.944;2023-03-13T22:26:53;100464.74;;;15.05;46.50
55550;BME280;41397;49.972;18.944;2023-03-13T22:29:54;100455.48;;;15.06;46.50
55550;BME280;41397;49.972;18.944;2023-03-13T22:32:57;100459.04;;;14.98;46.74
55550;BME280;41397;49.972;18.944;2023-03-13T22:36:01;100453.68;;;14.97;47.03
55550;BME280;41397;49.972;18.944;2023-03-13T22:39:03;100444.56;;;14.96;46.75
55550;BME280;41397;49.972;18.944;2023-03-13T22:42:05;100437.34;;;14.95;47.11
55550;BME280;41397;49.972;18.944;2023-03-13T22:45:07;100417.69;;;14.90;46.97
55550;BME280;41397;49.972;18.944;2023-03-13T22:48:09;100408.24;;;14.93;46.95
55550;BME280;41397;49.972;18.944;2023-03-13T22:51:13;100406.29;;;14.85;47.11
55550;BME280;41397;49.972;18.944;2023-03-13T22:54:15;100395.29;;;14.85;47.50
55550;BME280;41397;49.972;18.944;2023-03-13T22:57:17;100391.87;;;14.91;47.53
55550;BME280;41397;49.972;18.944;2023-03-13T23:00:19;100388.07;;;14.92;47.35
55550;BME280;41397;49.972;18.944;2023-03-13T23:03:21;100375.02;;;14.94;47.42
55550;BME280;41397;49.972;18.944;2023-03-13T23:06:24;100363.63;;;14.89;47.39
55550;BME280;41397;49.972;18.944;2023-03-13T23:09:26;100349.34;;;14.85;47.65
55550;BME280;41397;49.972;18.944;2023-03-13T23:12:27;100338.18;;;14.87;47.63
55550;BME280;41397;49.972;18.944;2023-03-13T23:15:30;100343.50;;;14.88;47.54
55550;BME280;41397;49.972;18.944;2023-03-13T23:18:32;100335.42;;;14.87;47.98
55550;BME280;41397;49.972;18.944;2023-03-13T23:21:33;100332.67;;;14.87;47.85
55550;BME280;41397;49.972;18.944;2023-03-13T23:24:34;100333.52;;;14.87;47.98
55550;BME280;41397;49.972;18.944;2023-03-13T23:27:36;100325.27;;;14.87;48.30
55550;BME280;41397;49.972;18.944;2023-03-13T23:30:37;100317.38;;;14.93;48.19
55550;BME280;41397;49.972;18.944;2023-03-13T23:33:39;100320.81;;;14.95;47.92
55550;BME280;41397;49.972;18.944;2023-03-13T23:36:41;100313.48;;;15.03;47.99
55550;BME280;41397;49.972;18.944;2023-03-13T23:39:42;100323.30;;;15.06;48.15
55550;BME280;41397;49.972;18.944;2023-03-13T23:42:45;100328.98;;;15.13;47.78
55550;BME280;41397;49.972;18.944;2023-03-13T23:45:47;100343.43;;;15.06;47.89
55550;BME280;41397;49.972;18.944;2023-03-13T23:48:51;100353.78;;;15.13;47.79
55550;BME280;41397;49.972;18.944;2023-03-13T23:51:53;100345.52;;;15.13;47.68
55550;BME280;41397;49.972;18.944;2023-03-13T23:54:55;100337.95;;;15.15;47.64
55550;BME280;41397;49.972;18.944;2023-03-13T23:57:57;100346.89;;;15.17;47.79
